sensor_id;sensor_type;location;lat;lon;timestamp;P1;durP1;ratioP1;P2;durP2;ratioP2
12912;SDS011;6524;51.368;11.984;2023-05-10T04:01:02;5.82;;;5.22;;
12912;SDS011;6524;51.368;11.984;2023-05-10T04:06:03;6.90;;;5.45;;
12912;SDS011;6524;51.368;11.984;2023-05-10T04:11:10;6.22;;;5.30;;
12912;SDS011;6524;51.368;11.984;2023-05-10T04:16:12;5.57;;;5.05;;
12912;SDS011;6524;51.368;11.984;2023-05-10T04:21:13;6.83;;;5.07;;
12912;SDS011;6524;51.368;11.984;2023-05-10T04:26:13;5.85;;;5.25;;
12912;SDS011;6524;51.368;11.984;2023-05-10T04:31:13;6.70;;;5.90;;
12912;SDS011;6524;51.368;11.984;2023-05-10T04:36:14;7.25;;;5.20;;
12912;SDS011;6524;51.368;11.984;2023-05-10T04:41:14;5.87;;;5.27;;
12912;SDS011;6524;51.368;11.984;2023-05-10T04:46:15;6.88;;;5.50;;
12912;SDS011;6524;51.368;11.984;2023-05-10T04:51:15;6.15;;;5.43;;
12912;SDS011;6524;51.368;11.984;2023-05-10T04:56:15;6.68;;;5.60;;
12912;SDS011;6524;51.368;11.984;2023-05-10T05:01:16;7.82;;;5.40;;
12912;SDS011;6524;51.368;11.984;2023-05-10T05:06:17;5.85;;;5.03;;
12912;SDS011;6524;51.368;11.984;2023-05-10T05:11:17;6.07;;;5.00;;
12912;SDS011;6524;51.368;11.984;2023-05-10T05:16:17;7.28;;;5.10;;
12912;SDS011;6524;51.368;11.984;2023-05-10T05:21:18;9.32;;;5.00;;
12912;SDS011;6524;51.368;11.984;2023-05-10T05:26:19;9.10;;;5.40;;
12912;SDS011;6524;51.368;11.984;2023-05-10T05:31:20;6.22;;;5.63;;
12912;SDS011;6524;51.368;11.984;2023-05-10T05:36:21;9.05;;;5.80;;
12912;SDS011;6524;51.368;11.984;2023-05-10T05:41:21;6.95;;;5.38;;
12912;SDS011;6524;51.368;11.984;2023-05-10T05:46:21;10.90;;;6.03;;
12912;SDS011;6524;51.368;11.984;2023-05-10T05:51:22;8.60;;;5.90;;
12912;SDS011;6524;51.368;11.984;2023-05-10T05:56:22;7.30;;;6.00;;
12912;SDS011;6524;51.368;11.984;2023-05-10T06:01:25;7.10;;;5.30;;
12912;SDS011;6524;51.368;11.984;2023-05-10T06:06:28;7.45;;;5.50;;
12912;SDS011;6524;51.368;11.984;2023-05-10T06:11:29;9.27;;;5.90;;
12912;SDS011;6524;51.368;11.984;2023-05-10T06:16:34;7.47;;;5.45;;
12912;SDS011;6524;51.368;11.984;2023-05-10T06:21:35;8.85;;;5.68;;
12912;SDS011;6524;51.368;11.984;2023-05-10T06:26:35;7.97;;;5.65;;
12912;SDS011;6524;51.368;11.984;2023-05-10T06:31:36;8.15;;;5.53;;
12912;SDS011;6524;51.368;11.984;2023-05-10T06:36:36;6.40;;;5.27;;
12912;SDS011;6524;51.368;11.984;2023-05-10T06:41:36;7.85;;;5.97;;
12912;SDS011;6524;51.368;11.984;2023-05-10T06:46:37;5.78;;;5.20;;
12912;SDS011;6524;51.368;11.984;2023-05-10T06:51:37;6.13;;;5.53;;
12912;SDS011;6524;51.368;11.984;2023-05-10T06:56:39;6.70;;;5.33;;
12912;SDS011;6524;51.368;11.984;2023-05-10T07:01:40;6.03;;;5.00;;
12912;SDS011;6524;51.368;11.984;2023-05-10T07:06:40;7.13;;;5.18;;
12912;SDS011;6524;51.368;11.984;2023-05-10T07:11:41;6.93;;;5.63;;
12912;SDS011;6524;51.368;11.984;2023-05-10T07:16:42;5.85;;;5.25;;
12912;SDS011;6524;51.368;11.984;2023-05-10T07:21:46;6.18;;;5.18;;
12912;SDS011;6524;51.368;11.984;2023-05-10T07:26:46;7.28;;;6.00;;
12912;SDS011;6524;51.368;11.984;2023-05-10T07:31:47;8.35;;;5.70;;
12912;SDS011;6524;51.368;11.984;2023-05-10T07:36:47;7.18;;;6.10;;
12912;SDS011;6524;51.368;11.984;2023-05-10T07:41:48;6.75;;;6.15;;
12912;SDS011;6524;51.368;11.984;2023-05-10T07:46:49;8.20;;;6.13;;
12912;SDS011;6524;51.368;11.984;2023-05-10T07:51:49;7.80;;;6.25;;
12912;SDS011;6524;51.368;11.984;2023-05-10T07:56:50;7.50;;;6.70;;
12912;SDS011;6524;51.368;11.984;2023-05-10T08:01:51;9.25;;;6.93;;
12912;SDS011;6524;51.368;11.984;2023-05-10T08:06:51;8.93;;;6.85;;
12912;SDS011;6524;51.368;11.984;2023-05-10T08:11:52;7.13;;;6.43;;
12912;SDS011;6524;51.368;11.984;2023-05-10T08:16:53;7.40;;;6.25;;
12912;SDS011;6524;51.368;11.984;2023-05-10T08:21:54;7.55;;;6.72;;
12912;SDS011;6524;51.368;11.984;2023-05-10T08:26:55;7.70;;;6.93;;
12912;SDS011;6524;51.368;11.984;2023-05-10T08:31:56;8.40;;;7.03;;
12912;SDS011;6524;51.368;11.984;2023-05-10T08:37:01;7.05;;;6.35;;
12912;SDS011;6524;51.368;11.984;2023-05-10T08:42:03;8.13;;;7.32;;
12912;SDS011;6524;51.368;11.984;2023-05-10T08:47:08;7.63;;;6.80;;
12912;SDS011;6524;51.368;11.984;2023-05-10T08:52:12;9.43;;;6.93;;
12912;SDS011;6524;51.368;11.984;2023-05-10T08:57:16;7.18;;;6.30;;
12912;SDS011;6524;51.368;11.984;2023-05-10T09:02:18;7.30;;;6.60;;
12912;SDS011;6524;51.368;11.984;2023-05-10T09:07:24;7.45;;;6.70;;
12912;SDS011;6524;51.368;11.984;2023-05-10T09:12:26;7.25;;;6.53;;
12912;SDS011;6524;51.368;11.984;2023-05-10T09:17:27;6.90;;;6.30;;
12912;SDS011;6524;51.368;11.984;2023-05-10T09:22:30;7.15;;;6.40;;
12912;SDS011;6524;51.368;11.984;2023-05-10T09:27:32;7.38;;;6.68;;
12912;SDS011;6524;51.368;11.984;2023-05-10T09:32:44;6.85;;;6.15;;
12912;SDS011;6524;51.368;11.984;2023-05-10T09:37:47;6.32;;;5.72;;
12912;SDS011;6524;51.368;11.984;2023-05-10T09:42:57;6.57;;;5.97;;
12912;SDS011;6524;51.368;11.984;2023-05-10T09:48:02;6.63;;;6.03;;
12912;SDS011;6524;51.368;11.984;2023-05-10T09:53:03;7.38;;;6.68;;
12912;SDS011;6524;51.368;11.984;2023-05-10T09:58:04;6.45;;;5.85;;
12912;SDS011;6524;51.368;11.984;2023-05-10T10:03:27;6.22;;;5.72;;
12912;SDS011;6524;51.368;11.984;2023-05-10T10:08:29;6.90;;;5.97;;
12912;SDS011;6524;51.368;11.984;2023-05-10T10:13:30;7.43;;;6.60;;
12912;SDS011;6524;51.368;11.984;2023-05-10T10:18:32;7.40;;;6.57;;
12912;SDS011;6524;51.368;11.984;2023-05-10T10:23:34;7.40;;;6.70;;
12912;SDS011;6524;51.368;11.984;2023-05-10T10:34:10;8.15;;;6.82;;
12912;SDS011;6524;51.368;11.984;2023-05-10T10:39:22;7.35;;;6.75;;
12912;SDS011;6524;51.368;11.984;2023-05-10T10:49:31;7.32;;;6.63;;
12912;SDS011;6524;51.368;11.984;2023-05-10T10:54:36;7.68;;;6.90;;
12912;SDS011;6524;51.368;11.984;2023-05-10T10:59:40;9.02;;;8.13;;
12912;SDS011;6524;51.368;11.984;2023-05-10T11:04:43;6.07;;;5.47;;
12912;SDS011;6524;51.368;11.984;2023-05-10T11:09:46;6.53;;;5.82;;
12912;SDS011;6524;51.368;11.984;2023-05-10T11:14:50;6.55;;;5.90;;
12912;SDS011;6524;51.368;11.984;2023-05-10T11:20:09;7.38;;;6.75;;
12912;SDS011;6524;51.368;11.984;2023-05-10T11:25:10;7.00;;;6.40;;
12912;SDS011;6524;51.368;11.984;2023-05-10T11:30:11;4.43;;;4.03;;
12912;SDS011;6524;51.368;11.984;2023-05-10T11:35:12;4.38;;;3.97;;
12912;SDS011;6524;51.368;11.984;2023-05-10T11:40:13;4.43;;;4.03;;
12912;SDS011;6524;51.368;11.984;2023-05-10T11:45:14;2.60;;;2.40;;
12912;SDS011;6524;51.368;11.984;2023-05-10T11:50:15;2.65;;;2.25;;
12912;SDS011;6524;51.368;11.984;2023-05-10T11:55:17;2.60;;;2.40;;
12912;SDS011;6524;51.368;11.984;2023-05-10T12:00:17;2.60;;;2.40;;
12912;SDS011;6524;51.368;11.984;2023-05-10T12:05:18;2.55;;;2.30;;
12912;SDS011;6524;51.368;11.984;2023-05-10T12:10:24;2.50;;;2.30;;
12912;SDS011;6524;51.368;11.984;2023-05-10T12:15:26;3.50;;;2.22;;
12912;SDS011;6524;51.368;11.984;2023-05-10T12:20:28;3.60;;;3.25;;
12912;SDS011;6524;51.368;11.984;2023-05-10T12:25:38;3.20;;;2.90;;
12912;SDS011;6524;51.368;11.984;2023-05-10T12:30:39;3.80;;;3.50;;
12912;SDS011;6524;51.368;11.984;2023-05-10T12:35:45;4.57;;;3.42;;
12912;SDS011;6524;51.368;11.984;2023-05-10T12:40:47;3.58;;;3.28;;
12912;SDS011;6524;51.368;11.984;2023-05-10T12:45:47;4.33;;;3.20;;
12912;SDS011;6524;51.368;11.984;2023-05-10T12:50:48;4.97;;;3.10;;
12912;SDS011;6524;51.368;11.984;2023-05-10T13:01:29;2.28;;;2.10;;
12912;SDS011;6524;51.368;11.984;2023-05-10T13:12:51;2.03;;;1.92;;
12912;SDS011;6524;51.368;11.984;2023-05-10T13:17:52;1.93;;;1.67;;
12912;SDS011;6524;51.368;11.984;2023-05-10T13:22:53;1.85;;;1.65;;
12912;SDS011;6524;51.368;11.984;2023-05-10T13:27:53;2.40;;;2.20;;
12912;SDS011;6524;51.368;11.984;2023-05-10T13:32:54;1.92;;;1.70;;
12912;SDS011;6524;51.368;11.984;2023-05-10T13:37:54;1.92;;;1.77;;
12912;SDS011;6524;51.368;11.984;2023-05-10T13:42:57;2.22;;;1.70;;
12912;SDS011;6524;51.368;11.984;2023-05-10T13:48:00;2.00;;;1.73;;
12912;SDS011;6524;51.368;11.984;2023-05-10T13:53:00;2.22;;;2.00;;
12912;SDS011;6524;51.368;11.984;2023-05-10T13:58:00;2.05;;;1.90;;
12912;SDS011;6524;51.368;11.984;2023-05-10T14:03:01;1.92;;;1.83;;
12912;SDS011;6524;51.368;11.984;2023-05-10T14:08:02;1.77;;;1.67;;
12912;SDS011;6524;51.368;11.984;2023-05-10T14:13:03;2.75;;;2.55;;
12912;SDS011;6524;51.368;11.984;2023-05-10T14:18:03;3.50;;;3.20;;
12912;SDS011;6524;51.368;11.984;2023-05-10T14:23:03;2.92;;;2.72;;
12912;SDS011;6524;51.368;11.984;2023-05-10T14:28:04;4.00;;;3.70;;
12912;SDS011;6524;51.368;11.984;2023-05-10T14:33:04;3.97;;;3.70;;
12912;SDS011;6524;51.368;11.984;2023-05-10T14:38:10;3.85;;;3.55;;
12912;SDS011;6524;51.368;11.984;2023-05-10T14:43:15;3.55;;;3.20;;
12912;SDS011;6524;51.368;11.984;2023-05-10T14:48:16;2.97;;;2.78;;
12912;SDS011;6524;51.368;11.984;2023-05-10T14:53:17;2.92;;;2.65;;
12912;SDS011;6524;51.368;11.984;2023-05-10T14:58:17;3.20;;;2.90;;
12912;SDS011;6524;51.368;11.984;2023-05-10T15:03:18;2.75;;;2.55;;
12912;SDS011;6524;51.368;11.984;2023-05-10T15:08:18;2.70;;;2.50;;
12912;SDS011;6524;51.368;11.984;2023-05-10T15:13:19;2.88;;;2.67;;
12912;SDS011;6524;51.368;11.984;2023-05-10T15:18:23;2.78;;;2.30;;
12912;SDS011;6524;51.368;11.984;2023-05-10T15:23:26;2.50;;;2.30;;
12912;SDS011;6524;51.368;11.984;2023-05-10T15:28:30;2.65;;;2.45;;
12912;SDS011;6524;51.368;11.984;2023-05-10T15:33:31;2.63;;;2.30;;
12912;SDS011;6524;51.368;11.984;2023-05-10T15:38:47;2.58;;;2.38;;
12912;SDS011;6524;51.368;11.984;2023-05-10T15:43:57;2.70;;;2.50;;
12912;SDS011;6524;51.368;11.984;2023-05-10T15:48:59;3.60;;;2.50;;
12912;SDS011;6524;51.368;11.984;2023-05-10T15:54:00;2.60;;;2.40;;
12912;SDS011;6524;51.368;11.984;2023-05-10T15:59:06;3.53;;;2.50;;
12912;SDS011;6524;51.368;11.984;2023-05-10T16:04:07;3.00;;;2.80;;
12912;SDS011;6524;51.368;11.984;2023-05-10T16:09:09;3.33;;;3.03;;
12912;SDS011;6524;51.368;11.984;2023-05-10T16:14:10;3.45;;;3.13;;
12912;SDS011;6524;51.368;11.984;2023-05-10T16:19:11;3.50;;;3.20;;
12912;SDS011;6524;51.368;11.984;2023-05-10T16:24:11;3.85;;;3.55;;
12912;SDS011;6524;51.368;11.984;2023-05-10T16:29:12;3.80;;;3.50;;
12912;SDS011;6524;51.368;11.984;2023-05-10T16:34:12;3.78;;;3.40;;
12912;SDS011;6524;51.368;11.984;2023-05-10T16:39:13;3.58;;;3.00;;
12912;SDS011;6524;51.368;11.984;2023-05-10T16:44:16;3.67;;;2.83;;
12912;SDS011;6524;51.368;11.984;2023-05-10T16:49:17;3.75;;;2.70;;
12912;SDS011;6524;51.368;11.984;2023-05-10T16:54:18;2.50;;;2.30;;
12912;SDS011;6524;51.368;11.984;2023-05-10T16:59:19;2.90;;;2.35;;
12912;SDS011;6524;51.368;11.984;2023-05-10T17:04:20;3.03;;;2.22;;
12912;SDS011;6524;51.368;11.984;2023-05-10T17:09:21;2.30;;;2.00;;
12912;SDS011;6524;51.368;11.984;2023-05-10T17:14:22;2.83;;;2.30;;
12912;SDS011;6524;51.368;11.984;2023-05-10T17:19:23;3.50;;;2.30;;
12912;SDS011;6524;51.368;11.984;2023-05-10T17:24:23;3.50;;;2.30;;
12912;SDS011;6524;51.368;11.984;2023-05-10T17:29:24;3.03;;;2.72;;
12912;SDS011;6524;51.368;11.984;2023-05-10T17:34:25;4.00;;;2.63;;
12912;SDS011;6524;51.368;11.984;2023-05-10T17:39:25;3.97;;;2.67;;
12912;SDS011;6524;51.368;11.984;2023-05-10T17:44:26;5.03;;;3.00;;
12912;SDS011;6524;51.368;11.984;2023-05-10T17:49:26;3.38;;;2.60;;
12912;SDS011;6524;51.368;11.984;2023-05-10T17:54:27;3.35;;;2.50;;
12912;SDS011;6524;51.368;11.984;2023-05-10T17:59:28;3.47;;;3.10;;
12912;SDS011;6524;51.368;11.984;2023-05-10T18:04:29;3.22;;;2.78;;
12912;SDS011;6524;51.368;11.984;2023-05-10T18:09:30;3.90;;;3.28;;
12912;SDS011;6524;51.368;11.984;2023-05-10T18:14:31;2.85;;;2.65;;
12912;SDS011;6524;51.368;11.984;2023-05-10T18:19:31;3.13;;;2.83;;
12912;SDS011;6524;51.368;11.984;2023-05-10T18:24:32;3.28;;;2.97;;
12912;SDS011;6524;51.368;11.984;2023-05-10T18:29:32;3.25;;;2.95;;
12912;SDS011;6524;51.368;11.984;2023-05-10T18:34:33;3.30;;;2.80;;
12912;SDS011;6524;51.368;11.984;2023-05-10T18:39:35;3.38;;;3.08;;
12912;SDS011;6524;51.368;11.984;2023-05-10T18:44:36;3.38;;;3.00;;
12912;SDS011;6524;51.368;11.984;2023-05-10T18:49:36;3.47;;;3.05;;
12912;SDS011;6524;51.368;11.984;2023-05-10T18:54:38;3.30;;;3.05;;
12912;SDS011;6524;51.368;11.984;2023-05-10T18:59:38;3.95;;;3.30;;
12912;SDS011;6524;51.368;11.984;2023-05-10T19:04:39;3.63;;;3.30;;
12912;SDS011;6524;51.368;11.984;2023-05-10T19:09:39;4.00;;;3.63;;
12912;SDS011;6524;51.368;11.984;2023-05-10T19:14:40;4.25;;;3.65;;
12912;SDS011;6524;51.368;11.984;2023-05-10T19:19:41;4.95;;;3.80;;
12912;SDS011;6524;51.368;11.984;2023-05-10T19:24:41;6.82;;;5.20;;
12912;SDS011;6524;51.368;11.984;2023-05-10T19:29:42;5.18;;;4.68;;
12912;SDS011;6524;51.368;11.984;2023-05-10T19:34:42;5.18;;;4.53;;
12912;SDS011;6524;51.368;11.984;2023-05-10T19:39:43;5.80;;;4.70;;
12912;SDS011;6524;51.368;11.984;2023-05-10T19:44:44;4.80;;;4.40;;
12912;SDS011;6524;51.368;11.984;2023-05-10T19:49:44;6.20;;;5.03;;
12912;SDS011;6524;51.368;11.984;2023-05-10T19:54:45;5.53;;;4.93;;
12912;SDS011;6524;51.368;11.984;2023-05-10T19:59:48;5.30;;;4.60;;
12912;SDS011;6524;51.368;11.984;2023-05-10T20:04:49;5.85;;;5.35;;
12912;SDS011;6524;51.368;11.984;2023-05-10T20:09:52;5.70;;;5.20;;
12912;SDS011;6524;51.368;11.984;2023-05-10T20:14:52;6.07;;;5.47;;
12912;SDS011;6524;51.368;11.984;2023-05-10T20:19:53;6.93;;;5.70;;
12912;SDS011;6524;51.368;11.984;2023-05-10T20:24:54;6.63;;;6.00;;
12912;SDS011;6524;51.368;11.984;2023-05-10T20:29:54;8.23;;;6.50;;
12912;SDS011;6524;51.368;11.984;2023-05-10T20:34:55;8.80;;;7.60;;
12912;SDS011;6524;51.368;11.984;2023-05-10T20:39:56;8.90;;;8.00;;
12912;SDS011;6524;51.368;11.984;2023-05-10T20:44:57;7.55;;;6.82;;
12912;SDS011;6524;51.368;11.984;2023-05-10T20:49:57;7.95;;;7.15;;
12912;SDS011;6524;51.368;11.984;2023-05-10T20:55:00;7.82;;;7.03;;
12912;SDS011;6524;51.368;11.984;2023-05-10T21:00:01;8.07;;;7.28;;
12912;SDS011;6524;51.368;11.984;2023-05-10T21:05:02;16.83;;;14.18;;
12912;SDS011;6524;51.368;11.984;2023-05-10T21:10:03;8.15;;;7.18;;
12912;SDS011;6524;51.368;11.984;2023-05-10T21:15:05;9.40;;;7.63;;
12912;SDS011;6524;51.368;11.984;2023-05-10T21:20:07;8.93;;;8.10;;
12912;SDS011;6524;51.368;11.984;2023-05-10T21:25:08;9.80;;;7.80;;
12912;SDS011;6524;51.368;11.984;2023-05-10T21:30:08;8.43;;;7.63;;
12912;SDS011;6524;51.368;11.984;2023-05-10T21:35:09;8.73;;;7.95;;
12912;SDS011;6524;51.368;11.984;2023-05-10T21:40:10;7.95;;;7.30;;
12912;SDS011;6524;51.368;11.984;2023-05-10T21:45:11;7.97;;;7.18;;
12912;SDS011;6524;51.368;11.984;2023-05-10T21:50:12;8.43;;;7.60;;
12912;SDS011;6524;51.368;11.984;2023-05-10T21:55:14;8.90;;;8.00;;
12912;SDS011;6524;51.368;11.984;2023-05-10T22:00:15;7.63;;;6.80;;
12912;SDS011;6524;51.368;11.984;2023-05-10T22:05:16;7.47;;;6.45;;
12912;SDS011;6524;51.368;11.984;2023-05-10T22:10:16;5.40;;;4.90;;
12912;SDS011;6524;51.368;11.984;2023-05-10T22:15:17;5.80;;;5.20;;
12912;SDS011;6524;51.368;11.984;2023-05-10T22:20:17;4.57;;;3.92;;
12912;SDS011;6524;51.368;11.984;2023-05-10T22:25:18;5.82;;;4.63;;
12912;SDS011;6524;51.368;11.984;2023-05-10T22:30:19;4.80;;;4.40;;
12912;SDS011;6524;51.368;11.984;2023-05-10T22:35:19;4.40;;;4.00;;
12912;SDS011;6524;51.368;11.984;2023-05-10T22:40:20;5.72;;;3.72;;
12912;SDS011;6524;51.368;11.984;2023-05-10T22:45:20;4.80;;;3.67;;
12912;SDS011;6524;51.368;11.984;2023-05-10T22:50:21;5.60;;;3.53;;
12912;SDS011;6524;51.368;11.984;2023-05-10T22:55:21;3.85;;;3.42;;
12912;SDS011;6524;51.368;11.984;2023-05-10T23:00:22;4.03;;;3.50;;
12912;SDS011;6524;51.368;11.984;2023-05-10T23:05:23;4.35;;;3.95;;
12912;SDS011;6524;51.368;11.984;2023-05-10T23:10:23;3.60;;;3.30;;
12912;SDS011;6524;51.368;11.984;2023-05-10T23:15:24;3.60;;;3.30;;
12912;SDS011;6524;51.368;11.984;2023-05-10T23:20:24;4.37;;;3.97;;
12912;SDS011;6524;51.368;11.984;2023-05-10T23:25:24;4.13;;;3.58;;
12912;SDS011;6524;51.368;11.984;2023-05-10T23:30:27;5.45;;;3.75;;
12912;SDS011;6524;51.368;11.984;2023-05-10T23:35:27;4.90;;;3.72;;
12912;SDS011;6524;51.368;11.984;2023-05-10T23:40:27;5.28;;;4.35;;
12912;SDS011;6524;51.368;11.984;2023-05-10T23:45:28;4.47;;;3.95;;
12912;SDS011;6524;51.368;11.984;2023-05-10T23:50:28;4.75;;;4.28;;
12912;SDS011;6524;51.368;11.984;2023-05-10T23:55:28;7.05;;;4.03;;
